createdAt,value
2023-01-10T00:00:37.832Z,7.00
2023-01-10T00:01:37.694Z,7.90
2023-01-10T00:02:37.723Z,7.30
2023-01-10T00:03:37.687Z,7.70
2023-01-10T00:04:37.703Z,7.30
2023-01-10T00:05:37.671Z,7.30
2023-01-10T00:06:37.641Z,6.60
2023-01-10T00:07:37.638Z,7.20
2023-01-10T00:08:37.616Z,6.80
2023-01-10T00:09:37.610Z,7.10
2023-01-10T00:10:37.588Z,7.20
2023-01-10T00:11:37.604Z,7.70
2023-01-10T00:12:37.588Z,6.50
2023-01-10T00:13:38.458Z,6.70
2023-01-10T00:14:37.547Z,7.10
2023-01-10T00:15:37.581Z,6.60
2023-01-10T00:16:37.519Z,6.70
2023-01-10T00:17:37.506Z,6.10
2023-01-10T00:18:37.511Z,6.30
2023-01-10T00:19:37.484Z,6.90
2023-01-10T00:20:37.491Z,6.90
2023-01-10T00:21:37.457Z,6.40
2023-01-10T00:22:38.461Z,6.90
2023-01-10T00:23:37.449Z,6.10
2023-01-10T00:24:37.454Z,6.10
2023-01-10T00:25:37.410Z,6.70
2023-01-10T00:26:37.416Z,6.50
2023-01-10T00:27:37.497Z,6.30
2023-01-10T00:28:37.389Z,6.70
2023-01-10T00:29:37.358Z,5.90
2023-01-10T00:30:37.763Z,6.10
2023-01-10T00:31:37.534Z,6.30
2023-01-10T00:32:37.335Z,6.40
2023-01-10T00:33:37.370Z,5.50
2023-01-10T00:34:37.313Z,6.50
2023-01-10T00:35:37.300Z,6.50
2023-01-10T00:36:37.326Z,6.00
2023-01-10T00:37:37.308Z,5.80
2023-01-10T00:38:37.273Z,6.50
2023-01-10T00:39:37.315Z,6.40
2023-01-10T00:40:39.966Z,6.00
2023-01-10T00:41:37.235Z,6.20
2023-01-10T00:42:37.217Z,6.10
2023-01-10T00:43:37.257Z,5.60
2023-01-10T00:44:39.977Z,6.10
2023-01-10T00:45:37.198Z,6.40
2023-01-10T00:46:37.177Z,6.50
2023-01-10T00:47:37.166Z,6.80
2023-01-10T00:48:37.171Z,5.80
2023-01-10T00:49:37.146Z,6.50
2023-01-10T00:50:37.149Z,6.70
2023-01-10T00:51:37.126Z,5.80
2023-01-10T00:52:37.132Z,6.40
2023-01-10T00:53:37.122Z,7.00
2023-01-10T00:54:37.096Z,5.70
2023-01-10T00:55:37.071Z,6.30
2023-01-10T00:56:37.087Z,6.20
2023-01-10T00:57:39.981Z,5.60
2023-01-10T00:58:37.058Z,5.90
2023-01-10T00:59:37.028Z,6.20
2023-01-10T01:00:37.046Z,6.30
2023-01-10T01:01:37.125Z,5.40
2023-01-10T01:02:37.071Z,5.20
2023-01-10T01:03:36.985Z,5.20
2023-01-10T01:04:36.984Z,5.90
2023-01-10T01:05:36.966Z,5.50
2023-01-10T01:06:36.959Z,5.30
2023-01-10T01:07:36.982Z,5.20
2023-01-10T01:08:36.986Z,4.80
2023-01-10T01:09:36.923Z,4.70
2023-01-10T01:10:37.943Z,4.60
2023-01-10T01:11:36.902Z,5.10
2023-01-10T01:12:36.878Z,4.80
2023-01-10T01:13:36.877Z,5.00
2023-01-10T01:14:36.867Z,5.50
2023-01-10T01:15:36.905Z,5.20
2023-01-10T01:16:36.859Z,5.10
2023-01-10T01:17:36.862Z,4.80
2023-01-10T01:18:36.820Z,4.20
2023-01-10T01:19:36.840Z,4.40
2023-01-10T01:20:36.801Z,4.50
2023-01-10T01:21:36.796Z,4.80
2023-01-10T01:22:36.786Z,4.50
2023-01-10T01:23:36.775Z,4.20
2023-01-10T01:24:36.774Z,4.60
2023-01-10T01:25:36.768Z,4.10
2023-01-10T01:26:36.741Z,4.70
2023-01-10T01:27:36.729Z,4.40
2023-01-10T01:28:36.712Z,4.30
2023-01-10T01:29:42.983Z,4.10
2023-01-10T01:30:37.700Z,4.50
2023-01-10T01:31:36.689Z,4.20
2023-01-10T01:32:36.694Z,4.20
2023-01-10T01:33:36.665Z,5.10
2023-01-10T01:34:36.657Z,4.50
2023-01-10T01:35:39.468Z,4.20
2023-01-10T01:36:36.655Z,4.00
2023-01-10T01:37:36.619Z,4.10
2023-01-10T01:38:36.633Z,4.00
2023-01-10T01:39:36.593Z,3.90
2023-01-10T01:40:36.603Z,4.20
2023-01-10T01:41:36.579Z,4.40
2023-01-10T01:42:36.567Z,4.50
2023-01-10T01:43:36.562Z,4.00
2023-01-10T01:44:36.547Z,4.00
2023-01-10T01:45:36.531Z,4.60
2023-01-10T01:46:36.580Z,4.20
2023-01-10T01:47:36.518Z,4.30
2023-01-10T01:48:39.469Z,4.00
2023-01-10T01:49:36.513Z,4.20
2023-01-10T01:50:37.495Z,3.80
2023-01-10T01:51:36.475Z,5.20
2023-01-10T01:52:36.461Z,4.50
2023-01-10T01:53:36.465Z,4.00
2023-01-10T01:54:36.425Z,4.70
2023-01-10T01:55:36.439Z,4.70
2023-01-10T01:56:36.434Z,4.40
2023-01-10T01:57:37.400Z,4.20
2023-01-10T01:58:36.389Z,4.60
2023-01-10T01:59:36.398Z,4.60
2023-01-10T02:00:36.368Z,4.50
2023-01-10T02:01:36.449Z,4.50
2023-01-10T02:02:36.365Z,3.90
2023-01-10T02:03:36.333Z,3.90
2023-01-10T02:04:36.349Z,4.50
2023-01-10T02:05:36.314Z,4.60
2023-01-10T02:06:36.287Z,4.10
2023-01-10T02:07:36.295Z,4.20
2023-01-10T02:08:36.396Z,4.40
2023-01-10T02:09:36.987Z,4.30
2023-01-10T02:10:36.378Z,4.20
2023-01-10T02:11:36.372Z,4.30
2023-01-10T02:12:36.417Z,4.60
2023-01-10T02:13:36.216Z,4.30
2023-01-10T02:14:36.504Z,4.00
2023-01-10T02:15:36.989Z,3.60
2023-01-10T02:16:36.515Z,4.10
2023-01-10T02:17:36.490Z,4.50
2023-01-10T02:18:36.969Z,4.20
2023-01-10T02:19:36.968Z,4.60
2023-01-10T02:20:38.018Z,4.60
2023-01-10T02:21:36.496Z,4.90
2023-01-10T02:22:40.030Z,4.50
2023-01-10T02:23:36.978Z,4.60
2023-01-10T02:24:36.491Z,4.40
2023-01-10T02:25:38.973Z,4.30
2023-01-10T02:26:36.080Z,4.90
2023-01-10T02:27:36.990Z,5.10
2023-01-10T02:28:36.987Z,4.80
2023-01-10T02:29:36.056Z,5.00
2023-01-10T02:30:36.975Z,5.40
2023-01-10T02:31:37.115Z,5.40
2023-01-10T02:32:45.785Z,4.50
2023-01-10T02:33:37.008Z,4.70
2023-01-10T02:34:36.973Z,4.90
2023-01-10T02:35:35.985Z,4.90
2023-01-10T02:36:36.503Z,5.20
2023-01-10T02:37:36.519Z,4.70
2023-01-10T02:38:36.462Z,4.80
2023-01-10T02:39:36.472Z,5.40
2023-01-10T02:40:36.473Z,5.20
2023-01-10T02:41:36.518Z,5.10
2023-01-10T02:42:37.499Z,4.80
2023-01-10T02:43:35.899Z,5.00
2023-01-10T02:44:38.492Z,5.30
2023-01-10T02:45:35.871Z,5.20
2023-01-10T02:46:36.586Z,5.00
2023-01-10T02:47:35.856Z,5.60
2023-01-10T02:48:36.545Z,5.70
2023-01-10T02:49:36.538Z,5.00
2023-01-10T02:50:38.470Z,5.00
2023-01-10T02:51:35.793Z,5.10
2023-01-10T02:52:37.493Z,5.10
2023-01-10T02:53:35.770Z,5.50
2023-01-10T02:54:39.008Z,5.00
2023-01-10T02:55:38.474Z,5.00
2023-01-10T02:56:38.465Z,5.10
2023-01-10T02:57:42.469Z,5.60
2023-01-10T02:58:38.469Z,5.30
2023-01-10T02:59:38.466Z,5.50
2023-01-10T03:00:37.524Z,5.10
2023-01-10T03:01:37.631Z,5.70
2023-01-10T03:02:38.498Z,5.60
2023-01-10T03:03:38.483Z,5.00
2023-01-10T03:04:38.499Z,5.10
2023-01-10T03:05:38.499Z,5.60
2023-01-10T03:06:38.470Z,5.10
2023-01-10T03:07:37.502Z,5.80
2023-01-10T03:08:35.616Z,5.00
2023-01-10T03:09:38.477Z,5.00
2023-01-10T03:10:35.594Z,5.60
2023-01-10T03:11:38.476Z,5.00
2023-01-10T03:12:38.456Z,5.10
2023-01-10T03:13:38.483Z,5.30
2023-01-10T03:14:35.536Z,5.30
2023-01-10T03:15:38.543Z,4.90
2023-01-10T03:16:37.508Z,6.10
2023-01-10T03:17:35.525Z,5.50
2023-01-10T03:18:38.464Z,5.90
2023-01-10T03:19:37.536Z,5.40
2023-01-10T03:20:35.475Z,5.50
2023-01-10T03:21:36.793Z,4.80
2023-01-10T03:22:37.516Z,5.00
2023-01-10T03:23:35.522Z,5.50
2023-01-10T03:24:37.495Z,5.20
2023-01-10T03:25:35.465Z,5.00
2023-01-10T03:26:37.543Z,5.30
2023-01-10T03:27:35.429Z,5.30
2023-01-10T03:28:37.969Z,4.50
2023-01-10T03:29:37.979Z,5.20
2023-01-10T03:30:37.961Z,4.50
2023-01-10T03:31:42.011Z,5.00
2023-01-10T03:32:35.354Z,5.20
2023-01-10T03:33:35.511Z,4.80
2023-01-10T03:34:35.328Z,4.80
2023-01-10T03:35:35.347Z,5.00
2023-01-10T03:36:35.298Z,4.50
2023-01-10T03:37:35.322Z,4.70
2023-01-10T03:38:35.277Z,4.80
2023-01-10T03:39:35.298Z,3.70
2023-01-10T03:40:35.977Z,4.20
2023-01-10T03:41:35.255Z,4.50
2023-01-10T03:42:35.240Z,3.90
2023-01-10T03:43:35.285Z,3.70
2023-01-10T03:44:35.231Z,3.90
2023-01-10T03:45:35.201Z,4.00
2023-01-10T03:46:38.035Z,4.10
2023-01-10T03:47:35.206Z,4.20
2023-01-10T03:48:35.172Z,4.40
2023-01-10T03:49:35.184Z,3.90
2023-01-10T03:50:37.968Z,4.40
2023-01-10T03:51:35.140Z,3.60
2023-01-10T03:52:35.161Z,4.10
2023-01-10T03:53:35.124Z,3.80
2023-01-10T03:54:35.119Z,3.70
2023-01-10T03:55:35.110Z,4.20
2023-01-10T03:56:35.085Z,4.20
2023-01-10T03:57:35.074Z,3.60
2023-01-10T03:58:35.059Z,4.10
2023-01-10T03:59:35.070Z,4.20
2023-01-10T04:00:35.051Z,4.10
2023-01-10T04:01:56.201Z,3.90
2023-01-10T04:02:35.019Z,3.30
2023-01-10T04:03:35.042Z,3.70
2023-01-10T04:04:35.006Z,3.50
2023-01-10T04:05:35.012Z,4.10
2023-01-10T04:06:35.027Z,3.70
2023-01-10T04:07:34.974Z,4.00
2023-01-10T04:08:34.974Z,3.30
2023-01-10T04:09:34.957Z,5.10
2023-01-10T04:10:34.993Z,4.10
2023-01-10T04:11:34.934Z,4.10
2023-01-10T04:12:34.930Z,3.80
2023-01-10T04:13:34.933Z,4.10
2023-01-10T04:14:55.923Z,4.80
2023-01-10T04:15:34.900Z,3.80
2023-01-10T04:16:34.935Z,3.90
2023-01-10T04:17:34.857Z,3.60
2023-01-10T04:18:34.887Z,3.80
2023-01-10T04:19:34.882Z,4.00
2023-01-10T04:20:34.816Z,4.00
2023-01-10T04:21:34.834Z,4.00
2023-01-10T04:22:34.792Z,4.30
2023-01-10T04:23:34.825Z,4.60
2023-01-10T04:24:34.793Z,3.80
2023-01-10T04:25:35.487Z,3.60
2023-01-10T04:26:34.766Z,3.90
2023-01-10T04:27:34.766Z,4.60
2023-01-10T04:28:34.742Z,4.10
2023-01-10T04:29:34.777Z,5.10
2023-01-10T04:30:34.716Z,4.00
2023-01-10T04:31:34.815Z,3.90
2023-01-10T04:32:34.707Z,4.40
2023-01-10T04:33:34.686Z,3.90
2023-01-10T04:34:34.671Z,4.10
2023-01-10T04:35:34.705Z,4.20
2023-01-10T04:36:34.652Z,3.90
2023-01-10T04:37:34.653Z,4.20
2023-01-10T04:38:34.650Z,4.40
2023-01-10T04:39:34.660Z,4.90
2023-01-10T04:40:35.475Z,4.70
2023-01-10T04:41:34.588Z,4.70
2023-01-10T04:42:34.581Z,5.00
2023-01-10T04:43:34.599Z,5.00
2023-01-10T04:44:34.563Z,5.20
2023-01-10T04:45:34.647Z,4.60
2023-01-10T04:46:34.542Z,5.20
2023-01-10T04:47:34.527Z,4.90
2023-01-10T04:48:34.531Z,5.50
2023-01-10T04:49:34.519Z,5.10
2023-01-10T04:50:34.491Z,4.90
2023-01-10T04:51:34.508Z,5.40
2023-01-10T04:52:34.492Z,5.70
2023-01-10T04:53:34.486Z,5.10
2023-01-10T04:54:34.461Z,5.40
2023-01-10T04:55:34.458Z,5.30
2023-01-10T04:56:34.440Z,5.40
2023-01-10T04:57:34.420Z,5.30
2023-01-10T04:58:34.450Z,5.00
2023-01-10T04:59:34.404Z,4.80
2023-01-10T05:00:34.393Z,5.40
2023-01-10T05:01:34.371Z,4.70
2023-01-10T05:02:34.528Z,5.30
2023-01-10T05:03:34.420Z,5.30
2023-01-10T05:04:34.351Z,5.60
2023-01-10T05:05:34.516Z,5.10
2023-01-10T05:06:34.329Z,5.10
2023-01-10T05:07:34.342Z,5.30
2023-01-10T05:08:34.299Z,5.50
2023-01-10T05:09:34.492Z,5.00
2023-01-10T05:10:34.279Z,5.40
2023-01-10T05:11:34.269Z,5.30
2023-01-10T05:12:34.252Z,5.90
2023-01-10T05:13:34.277Z,5.30
2023-01-10T05:14:34.254Z,5.20
2023-01-10T05:15:34.359Z,5.90
2023-01-10T05:16:34.247Z,5.10
2023-01-10T05:17:34.197Z,5.40
2023-01-10T05:18:34.183Z,6.00
2023-01-10T05:19:34.178Z,5.50
2023-01-10T05:20:34.181Z,5.50
2023-01-10T05:21:34.162Z,6.10
2023-01-10T05:22:34.170Z,6.00
2023-01-10T05:23:34.153Z,5.10
2023-01-10T05:24:34.140Z,5.20
2023-01-10T05:25:34.189Z,5.70
2023-01-10T05:26:34.104Z,5.40
2023-01-10T05:27:34.093Z,5.60
2023-01-10T05:28:34.100Z,5.40
2023-01-10T05:29:34.102Z,5.10
2023-01-10T05:30:34.059Z,5.80
2023-01-10T05:31:34.123Z,5.80
2023-01-10T05:32:34.030Z,5.70
2023-01-10T05:33:34.031Z,5.30
2023-01-10T05:34:34.029Z,5.10
2023-01-10T05:35:34.048Z,5.40
2023-01-10T05:36:34.006Z,6.20
2023-01-10T05:37:33.980Z,5.30
2023-01-10T05:38:35.002Z,4.90
2023-01-10T05:39:33.979Z,6.50
2023-01-10T05:40:33.972Z,5.20
2023-01-10T05:41:33.930Z,6.00
2023-01-10T05:42:33.963Z,5.50
2023-01-10T05:43:33.913Z,5.00
2023-01-10T05:44:33.933Z,6.00
2023-01-10T05:45:34.023Z,5.90
2023-01-10T05:46:33.888Z,5.30
2023-01-10T05:47:33.884Z,5.00
2023-01-10T05:48:33.902Z,4.70
2023-01-10T05:49:34.319Z,5.20
2023-01-10T05:50:33.874Z,5.10
2023-01-10T05:51:33.845Z,4.90
2023-01-10T05:52:33.819Z,4.60
2023-01-10T05:53:33.859Z,4.90
2023-01-10T05:54:33.806Z,5.10
2023-01-10T05:55:33.795Z,4.50
2023-01-10T05:56:33.801Z,4.60
2023-01-10T05:57:33.799Z,5.30
2023-01-10T05:58:33.759Z,4.40
2023-01-10T05:59:33.773Z,4.50
2023-01-10T06:00:33.727Z,4.30
2023-01-10T06:01:33.864Z,4.80
2023-01-10T06:02:33.840Z,5.20
2023-01-10T06:03:33.715Z,4.10
2023-01-10T06:04:33.700Z,4.50
2023-01-10T06:05:33.715Z,4.50
2023-01-10T06:06:33.669Z,4.40
2023-01-10T06:07:33.691Z,4.30
2023-01-10T06:08:33.642Z,4.00
2023-01-10T06:09:33.639Z,4.90
2023-01-10T06:10:33.625Z,4.70
2023-01-10T06:11:33.643Z,4.50
2023-01-10T06:12:33.657Z,4.10
2023-01-10T06:13:33.632Z,4.20
2023-01-10T06:14:33.582Z,3.70
2023-01-10T06:15:33.569Z,4.00
2023-01-10T06:16:33.568Z,5.00
2023-01-10T06:17:33.592Z,4.40
2023-01-10T06:18:33.550Z,3.90
2023-01-10T06:19:33.523Z,3.90
2023-01-10T06:20:33.539Z,4.40
2023-01-10T06:21:33.504Z,4.20
2023-01-10T06:22:33.495Z,4.30
2023-01-10T06:23:33.503Z,4.60
2023-01-10T06:24:33.459Z,3.50
2023-01-10T06:25:33.459Z,4.30
2023-01-10T06:26:33.452Z,4.70
2023-01-10T06:27:33.473Z,4.40
2023-01-10T06:28:33.436Z,4.10
2023-01-10T06:29:33.416Z,4.60
2023-01-10T06:30:33.424Z,4.20
2023-01-10T06:31:33.500Z,4.00
2023-01-10T06:32:33.437Z,3.90
2023-01-10T06:33:33.374Z,3.80
2023-01-10T06:34:33.367Z,4.90
2023-01-10T06:35:33.355Z,4.40
2023-01-10T06:36:33.357Z,3.90
2023-01-10T06:37:33.320Z,3.70
2023-01-10T06:38:33.338Z,3.60
2023-01-10T06:39:33.307Z,3.80
2023-01-10T06:40:33.336Z,4.10
2023-01-10T06:41:33.286Z,4.50
2023-01-10T06:42:33.280Z,3.80
2023-01-10T06:43:34.279Z,4.20
2023-01-10T06:44:33.267Z,4.30
2023-01-10T06:45:33.242Z,3.40
2023-01-10T06:46:33.233Z,3.70
2023-01-10T06:47:33.217Z,4.30
2023-01-10T06:48:33.222Z,3.80
2023-01-10T06:49:33.212Z,4.00
2023-01-10T06:50:33.199Z,3.70
2023-01-10T06:51:33.182Z,4.10
2023-01-10T06:52:33.176Z,3.90
2023-01-10T06:53:33.144Z,4.20
2023-01-10T06:54:34.239Z,3.80
2023-01-10T06:55:33.132Z,4.00
2023-01-10T06:56:33.144Z,3.60
2023-01-10T06:57:33.103Z,3.70
2023-01-10T06:58:33.104Z,4.10
2023-01-10T06:59:33.117Z,4.30
2023-01-10T07:00:33.120Z,3.80
2023-01-10T07:01:33.193Z,4.10
2023-01-10T07:02:33.056Z,4.60
2023-01-10T07:03:33.189Z,4.40
2023-01-10T07:04:33.056Z,4.40
2023-01-10T07:05:33.021Z,3.80
2023-01-10T07:06:33.015Z,3.70
2023-01-10T07:07:32.996Z,3.80
2023-01-10T07:08:33.046Z,4.00
2023-01-10T07:09:32.983Z,4.90
2023-01-10T07:10:32.984Z,4.00
2023-01-10T07:11:32.981Z,4.20
2023-01-10T07:12:32.954Z,3.90
2023-01-10T07:13:32.934Z,4.60
2023-01-10T07:14:32.945Z,5.00
2023-01-10T07:15:32.956Z,4.10
2023-01-10T07:16:32.915Z,4.30
2023-01-10T07:17:32.885Z,4.10
2023-01-10T07:18:32.919Z,4.40
2023-01-10T07:19:32.888Z,3.70
2023-01-10T07:20:32.887Z,4.10
2023-01-10T07:21:32.855Z,4.10
2023-01-10T07:22:32.849Z,4.00
2023-01-10T07:23:32.819Z,4.10
2023-01-10T07:24:32.820Z,3.80
2023-01-10T07:25:32.831Z,4.50
2023-01-10T07:26:32.803Z,4.00
2023-01-10T07:27:32.805Z,4.20
2023-01-10T07:28:32.780Z,4.10
2023-01-10T07:29:32.796Z,3.90
2023-01-10T07:30:32.759Z,4.30
2023-01-10T07:31:32.861Z,4.60
2023-01-10T07:32:32.739Z,4.00
2023-01-10T07:33:32.725Z,3.80
2023-01-10T07:34:32.742Z,4.20
2023-01-10T07:35:32.700Z,4.10
2023-01-10T07:36:32.720Z,3.70
2023-01-10T07:37:32.672Z,4.10
2023-01-10T07:38:32.681Z,3.40
2023-01-10T07:39:32.648Z,3.70
2023-01-10T07:40:32.709Z,4.20
2023-01-10T07:41:32.624Z,4.10
2023-01-10T07:42:32.627Z,3.20
2023-01-10T07:43:32.607Z,4.00
2023-01-10T07:44:32.609Z,4.10
2023-01-10T07:45:32.619Z,4.20
2023-01-10T07:46:32.688Z,4.10
2023-01-10T07:47:32.582Z,4.40
2023-01-10T07:48:32.560Z,4.80
2023-01-10T07:49:32.552Z,4.80
2023-01-10T07:50:32.552Z,4.50
2023-01-10T07:51:32.534Z,4.10
2023-01-10T07:52:32.525Z,4.10
2023-01-10T07:53:32.500Z,4.20
2023-01-10T07:54:32.502Z,4.50
2023-01-10T07:55:32.521Z,4.80
2023-01-10T07:56:32.489Z,4.80
2023-01-10T07:57:32.459Z,4.30
2023-01-10T07:58:32.490Z,5.00
2023-01-10T07:59:32.490Z,4.20
2023-01-10T08:00:32.462Z,4.50
2023-01-10T08:01:32.507Z,4.80
2023-01-10T08:02:32.586Z,3.90
2023-01-10T08:03:32.559Z,4.90
2023-01-10T08:04:32.396Z,4.10
2023-01-10T08:05:32.397Z,4.10
2023-01-10T08:06:32.388Z,4.80
2023-01-10T08:07:32.348Z,4.50
2023-01-10T08:08:34.450Z,4.50
2023-01-10T08:09:32.352Z,4.20
2023-01-10T08:10:33.337Z,4.90
2023-01-10T08:11:32.301Z,4.30
2023-01-10T08:12:32.315Z,4.30
2023-01-10T08:13:32.309Z,4.40
2023-01-10T08:14:32.448Z,4.90
2023-01-10T08:15:32.288Z,4.10
2023-01-10T08:16:32.268Z,4.70
2023-01-10T08:17:33.314Z,4.70
2023-01-10T08:18:32.233Z,5.00
2023-01-10T08:19:32.255Z,4.90
2023-01-10T08:20:32.227Z,4.50
2023-01-10T08:21:32.218Z,4.80
2023-01-10T08:22:32.190Z,5.20
2023-01-10T08:23:32.202Z,4.60
2023-01-10T08:24:32.180Z,5.10
2023-01-10T08:25:32.180Z,5.10
2023-01-10T08:26:32.192Z,4.50
2023-01-10T08:27:32.146Z,5.00
2023-01-10T08:28:32.134Z,5.30
2023-01-10T08:29:32.126Z,4.80
2023-01-10T08:30:32.119Z,5.20
2023-01-10T08:31:32.215Z,4.90
2023-01-10T08:32:32.098Z,5.30
2023-01-10T08:33:32.070Z,5.40
2023-01-10T08:34:32.088Z,5.80
2023-01-10T08:35:32.070Z,5.90
2023-01-10T08:36:32.036Z,6.30
2023-01-10T08:37:32.029Z,5.80
2023-01-10T08:38:32.018Z,6.00
2023-01-10T08:39:32.012Z,6.50
2023-01-10T08:40:31.995Z,5.80
2023-01-10T08:41:31.981Z,6.30
2023-01-10T08:42:31.979Z,7.30
2023-01-10T08:43:31.964Z,6.40
2023-01-10T08:44:31.947Z,7.30
2023-01-10T08:45:31.949Z,7.10
2023-01-10T08:46:31.934Z,7.00
2023-01-10T08:47:31.919Z,6.80
2023-01-10T08:48:31.914Z,7.50
2023-01-10T08:49:31.893Z,7.50
2023-01-10T08:50:31.921Z,8.60
2023-01-10T08:51:31.883Z,7.70
2023-01-10T08:52:31.872Z,8.00
2023-01-10T08:53:31.865Z,7.50
2023-01-10T08:54:31.852Z,7.60
2023-01-10T08:55:31.844Z,7.60
2023-01-10T08:56:31.832Z,7.90
2023-01-10T08:57:31.807Z,8.40
2023-01-10T08:58:31.810Z,7.60
2023-01-10T08:59:31.828Z,7.50
2023-01-10T09:00:31.787Z,7.50
2023-01-10T09:01:31.880Z,8.10
2023-01-10T09:02:31.792Z,7.40
2023-01-10T09:03:31.771Z,7.70
2023-01-10T09:04:33.084Z,8.10
2023-01-10T09:05:31.701Z,7.20
2023-01-10T09:06:31.721Z,7.60
2023-01-10T09:07:31.713Z,6.30
2023-01-10T09:08:31.695Z,7.10
2023-01-10T09:09:31.706Z,6.80
2023-01-10T09:10:31.672Z,7.20
2023-01-10T09:11:31.681Z,6.10
2023-01-10T09:12:31.637Z,6.00
2023-01-10T09:13:31.645Z,6.70
2023-01-10T09:14:31.646Z,6.30
2023-01-10T09:15:31.606Z,6.80
2023-01-10T09:16:31.612Z,6.90
2023-01-10T09:17:31.599Z,7.60
2023-01-10T09:18:31.570Z,6.90
2023-01-10T09:19:31.570Z,7.10
2023-01-10T09:20:31.556Z,6.80
2023-01-10T09:21:31.544Z,6.70
2023-01-10T09:22:31.552Z,6.40
2023-01-10T09:23:31.559Z,6.50
2023-01-10T09:24:31.527Z,6.80
2023-01-10T09:25:31.503Z,6.80
2023-01-10T09:26:31.485Z,6.70
2023-01-10T09:27:31.482Z,7.30
2023-01-10T09:28:31.465Z,6.80
2023-01-10T09:29:31.470Z,6.80
2023-01-10T09:30:31.441Z,6.40
2023-01-10T09:31:31.455Z,6.90
2023-01-10T09:32:31.438Z,7.00
2023-01-10T09:33:45.213Z,7.00
2023-01-10T09:34:32.416Z,6.20
2023-01-10T09:35:31.393Z,6.60
2023-01-10T09:36:31.376Z,6.70
2023-01-10T09:37:31.363Z,6.30
2023-01-10T09:38:31.351Z,6.10
2023-01-10T09:39:31.379Z,6.10
2023-01-10T09:40:32.382Z,6.00
2023-01-10T09:41:31.333Z,6.40
2023-01-10T09:42:31.360Z,6.00
2023-01-10T09:43:31.343Z,6.40
2023-01-10T09:44:31.295Z,6.60
2023-01-10T09:45:31.283Z,5.90
2023-01-10T09:46:31.312Z,5.70
2023-01-10T09:47:31.259Z,5.30
2023-01-10T09:48:31.245Z,5.70
2023-01-10T09:49:31.252Z,5.60
2023-01-10T09:50:31.238Z,6.40
2023-01-10T09:51:31.223Z,6.00
2023-01-10T09:52:31.201Z,5.90
2023-01-10T09:53:31.202Z,5.30
2023-01-10T09:54:31.188Z,6.30
2023-01-10T09:55:32.453Z,6.00
2023-01-10T09:56:31.165Z,5.40
2023-01-10T09:57:31.168Z,6.40
2023-01-10T09:58:31.230Z,5.80
2023-01-10T09:59:31.148Z,6.40
2023-01-10T10:00:31.127Z,6.00
2023-01-10T10:01:31.141Z,6.20
2023-01-10T10:02:31.151Z,5.40
2023-01-10T10:03:31.115Z,7.10
2023-01-10T10:04:31.122Z,5.80
2023-01-10T10:05:31.042Z,5.80
2023-01-10T10:06:31.054Z,6.70
2023-01-10T10:07:31.035Z,5.60
2023-01-10T10:08:31.042Z,6.40
2023-01-10T10:09:31.043Z,5.40
2023-01-10T10:10:31.012Z,5.60
2023-01-10T10:11:32.047Z,7.00
2023-01-10T10:12:30.979Z,6.50
2023-01-10T10:13:30.995Z,5.80
2023-01-10T10:14:30.957Z,6.70
2023-01-10T10:15:30.966Z,6.00
2023-01-10T10:16:30.989Z,6.10
2023-01-10T10:17:30.917Z,6.60
2023-01-10T10:18:30.911Z,5.40
2023-01-10T10:19:30.923Z,5.80
2023-01-10T10:20:30.895Z,7.10
2023-01-10T10:21:30.888Z,6.00
2023-01-10T10:22:30.894Z,6.30
2023-01-10T10:23:33.324Z,6.30
2023-01-10T10:24:30.858Z,6.30
2023-01-10T10:25:30.836Z,6.30
2023-01-10T10:26:30.823Z,6.50
2023-01-10T10:27:30.838Z,7.00
2023-01-10T10:28:30.821Z,6.70
2023-01-10T10:29:30.799Z,6.20
2023-01-10T10:30:30.781Z,6.40
2023-01-10T10:31:30.793Z,6.30
2023-01-10T10:32:30.760Z,5.60
2023-01-10T10:33:30.749Z,6.60
2023-01-10T10:34:30.745Z,6.20
2023-01-10T10:35:30.729Z,6.80
2023-01-10T10:36:30.704Z,6.30
2023-01-10T10:37:30.742Z,6.20
2023-01-10T10:38:30.690Z,6.20
2023-01-10T10:39:30.685Z,6.00
2023-01-10T10:40:30.658Z,6.00
2023-01-10T10:41:30.661Z,6.20
2023-01-10T10:42:30.650Z,6.70
2023-01-10T10:43:30.679Z,6.20
2023-01-10T10:44:30.633Z,6.60
2023-01-10T10:45:30.645Z,5.90
2023-01-10T10:46:30.602Z,6.20
2023-01-10T10:47:30.578Z,5.90
2023-01-10T10:48:30.636Z,5.60
2023-01-10T10:49:30.575Z,5.50
2023-01-10T10:50:30.549Z,5.60
2023-01-10T10:51:30.543Z,5.40
2023-01-10T10:52:30.532Z,7.10
2023-01-10T10:53:30.517Z,5.80
2023-01-10T10:54:30.510Z,5.50
2023-01-10T10:55:30.523Z,5.60
2023-01-10T10:56:30.488Z,5.80
2023-01-10T10:57:30.472Z,5.30
2023-01-10T10:58:30.455Z,5.40
2023-01-10T10:59:30.487Z,5.70
2023-01-10T11:00:30.473Z,4.80
2023-01-10T11:01:30.572Z,4.90
2023-01-10T11:02:30.418Z,4.90
2023-01-10T11:03:30.442Z,5.40
2023-01-10T11:04:31.446Z,5.40
2023-01-10T11:05:30.398Z,4.90
2023-01-10T11:06:31.329Z,4.50
2023-01-10T11:07:30.360Z,4.80
2023-01-10T11:08:30.366Z,5.70
2023-01-10T11:09:30.337Z,4.50
2023-01-10T11:10:30.330Z,4.50
2023-01-10T11:11:30.341Z,5.30
2023-01-10T11:12:30.311Z,4.90
2023-01-10T11:13:30.318Z,4.80
2023-01-10T11:14:30.277Z,5.10
2023-01-10T11:15:30.283Z,5.30
2023-01-10T11:16:30.378Z,4.40
2023-01-10T11:17:30.251Z,5.10
2023-01-10T11:18:30.250Z,4.90
2023-01-10T11:19:30.249Z,5.40
2023-01-10T11:20:30.209Z,4.30
2023-01-10T11:21:31.257Z,4.90
2023-01-10T11:22:30.495Z,4.10
2023-01-10T11:23:30.224Z,4.80
2023-01-10T11:24:30.193Z,5.00
2023-01-10T11:25:32.973Z,4.50
2023-01-10T11:26:30.146Z,4.40
2023-01-10T11:27:30.160Z,4.90
2023-01-10T11:28:30.123Z,4.90
2023-01-10T11:29:30.139Z,4.40
2023-01-10T11:30:30.964Z,4.10
2023-01-10T11:31:30.202Z,3.90
2023-01-10T11:32:30.084Z,4.60
2023-01-10T11:33:30.094Z,5.20
2023-01-10T11:34:30.055Z,4.90
2023-01-10T11:35:30.056Z,4.60
2023-01-10T11:36:30.027Z,4.60
2023-01-10T11:37:30.034Z,5.20
2023-01-10T11:38:30.062Z,4.80
2023-01-10T11:39:30.966Z,3.80
2023-01-10T11:40:31.038Z,4.60
2023-01-10T11:41:30.976Z,4.50
2023-01-10T11:42:30.039Z,4.80
2023-01-10T11:43:29.957Z,5.10
2023-01-10T11:44:29.995Z,4.30
2023-01-10T11:45:30.484Z,4.50
2023-01-10T11:46:30.468Z,4.10
2023-01-10T11:47:32.193Z,4.30
2023-01-10T11:48:59.465Z,5.30
2023-01-10T11:49:30.919Z,4.50
2023-01-10T11:50:29.883Z,3.80
2023-01-10T11:51:29.863Z,4.40
2023-01-10T11:52:29.896Z,4.50
2023-01-10T11:53:32.482Z,4.40
2023-01-10T11:54:29.850Z,4.90
2023-01-10T11:55:29.822Z,4.90
2023-01-10T11:56:29.837Z,4.60
2023-01-10T11:57:29.803Z,4.40
2023-01-10T11:58:29.797Z,4.60
2023-01-10T11:59:29.787Z,4.20
2023-01-10T12:00:29.794Z,3.90
2023-01-10T12:01:30.077Z,4.00
2023-01-10T12:02:29.801Z,4.10
2023-01-10T12:03:29.782Z,4.90
2023-01-10T12:04:29.773Z,4.30
2023-01-10T12:05:36.603Z,4.00
2023-01-10T12:06:36.481Z,4.60
2023-01-10T12:07:29.695Z,3.80
2023-01-10T12:08:29.689Z,4.60
2023-01-10T12:09:29.692Z,4.40
2023-01-10T12:10:29.672Z,4.10
2023-01-10T12:11:29.652Z,4.80
2023-01-10T12:12:29.640Z,4.80
2023-01-10T12:13:29.634Z,4.10
2023-01-10T12:14:30.462Z,4.00
2023-01-10T12:15:29.637Z,4.30
2023-01-10T12:16:30.588Z,4.10
2023-01-10T12:17:29.605Z,4.50
2023-01-10T12:18:29.570Z,3.90
2023-01-10T12:19:29.607Z,4.60
2023-01-10T12:20:29.552Z,3.70
2023-01-10T12:21:29.566Z,4.50
2023-01-10T12:22:29.526Z,4.10
2023-01-10T12:23:29.516Z,3.70
2023-01-10T12:24:29.503Z,4.10
2023-01-10T12:25:29.525Z,4.50
2023-01-10T12:26:30.469Z,4.30
2023-01-10T12:27:29.475Z,4.30
2023-01-10T12:28:29.455Z,4.00
2023-01-10T12:29:29.992Z,4.20
2023-01-10T12:30:29.461Z,3.80
2023-01-10T12:31:29.461Z,4.00
2023-01-10T12:32:29.963Z,4.60
2023-01-10T12:33:29.414Z,4.20
2023-01-10T12:34:29.407Z,3.60
2023-01-10T12:35:29.401Z,3.50
2023-01-10T12:36:31.970Z,3.20
2023-01-10T12:37:29.403Z,4.30
2023-01-10T12:38:35.988Z,4.10
2023-01-10T12:39:29.342Z,3.70
2023-01-10T12:40:31.959Z,3.80
2023-01-10T12:41:29.313Z,3.70
2023-01-10T12:42:35.973Z,4.50
2023-01-10T12:43:29.311Z,3.80
2023-01-10T12:44:29.523Z,3.70
2023-01-10T12:45:29.970Z,4.30
2023-01-10T12:47:04.801Z,4.60
2023-01-10T12:47:31.083Z,4.10
2023-01-10T12:48:29.217Z,3.70
2023-01-10T12:49:29.228Z,3.90
2023-01-10T12:50:29.494Z,3.90
2023-01-10T12:51:31.024Z,4.30
2023-01-10T12:52:29.213Z,3.60
2023-01-10T12:53:29.212Z,4.10
2023-01-10T12:54:35.973Z,4.10
2023-01-10T12:55:29.171Z,3.90
2023-01-10T12:56:29.154Z,4.00
2023-01-10T12:57:29.139Z,5.40
2023-01-10T12:58:29.152Z,4.70
2023-01-10T12:59:37.084Z,4.10
2023-01-10T13:00:32.879Z,4.30
2023-01-10T13:01:30.281Z,4.20
2023-01-10T13:02:29.255Z,4.00
2023-01-10T13:03:29.123Z,3.60
2023-01-10T13:04:29.081Z,4.50
2023-01-10T13:05:29.063Z,5.40
2023-01-10T13:06:29.044Z,3.90
2023-01-10T13:07:30.009Z,3.70
2023-01-10T13:08:29.020Z,3.90
2023-01-10T13:09:29.502Z,3.80
2023-01-10T13:10:29.001Z,4.70
2023-01-10T13:11:29.019Z,4.50
2023-01-10T13:12:29.962Z,3.40
2023-01-10T13:13:28.971Z,3.80
2023-01-10T13:14:28.980Z,4.20
2023-01-10T13:15:29.109Z,4.20
2023-01-10T13:16:28.928Z,4.20
2023-01-10T13:17:28.923Z,3.80
2023-01-10T13:18:29.468Z,4.30